Time;durP1;ratioP1;P1;durP2;ratioP2;P2;SDS_P1;SDS_P2;PMS_P1;PMS_P2;Temp;Humidity;BMP_temperature;BMP_pressure;BME280_temperature;BME280_humidity;BME280_pressure;Samples;Min_cycle;Max_cycle;Signal;HPM_P1;HPM_P2
2022/09/04 00:01:43;;;;;;;;;;;19.00;89.70;;;;;;5067748;28;20355;-47
2022/09/04 00:04:14;;;;;;;;;;;19.00;89.40;;;;;;5078369;28;19943;-46
2022/09/04 00:07:06;;;;;;;;;;;19.00;89.20;;;;;;5076581;28;20352;-46
2022/09/04 00:10:08;;;;;;;;;;;19.00;89.40;;;;;;5039631;28;19913;-50
2022/09/04 00:12:39;;;;;;;;;;;19.00;89.30;;;;;;5025945;28;19905;-49
2022/09/04 00:15:13;;;;;;;;;;;19.00;89.70;;;;;;5078765;28;20318;-48
2022/09/04 00:17:45;;;;;;;;;;;19.00;90.40;;;;;;5078569;28;19995;-49
2022/09/04 00:20:15;;;;;;;;;;;19.00;90.50;;;;;;5078300;28;20636;-46
2022/09/04 00:22:57;;;;;;;;;;;19.00;90.10;;;;;;5078635;28;19913;-46
2022/09/04 00:25:37;;;;;;;;;;;19.00;90.10;;;;;;5078258;28;19952;-48
2022/09/04 00:28:18;;;;;;;;;;;19.00;90.00;;;;;;5076071;28;19905;-45
2022/09/04 00:30:52;;;;;;;;;;;19.00;90.00;;;;;;5078389;28;19983;-50
2022/09/04 00:33:23;;;;;;;;;;;19.00;90.50;;;;;;5077898;28;19930;-46
2022/09/04 00:35:54;;;;;;;;;;;18.90;90.30;;;;;;5078427;28;19912;-49
2022/09/04 00:38:23;;;;;;;;;;;18.90;90.00;;;;;;5078126;28;19942;-49
2022/09/04 00:41:12;;;;;;;;;;;18.90;89.40;;;;;;5078061;28;19939;-46
2022/09/04 00:43:37;;;;;;;;;;;18.90;89.10;;;;;;5064461;28;19909;-47
2022/09/04 00:46:13;;;;;;;;;;;18.90;89.10;;;;;;5078206;28;19919;-49
2022/09/04 00:48:57;;;;;;;;;;;19.00;89.20;;;;;;5077863;28;19951;-48
2022/09/04 00:51:29;;;;;;;;;;;19.00;89.20;;;;;;5077873;28;19916;-48
2022/09/04 00:54:13;;;;;;;;;;;19.00;88.80;;;;;;5076970;28;19905;-47
2022/09/04 00:56:48;;;;;;;;;;;19.00;88.70;;;;;;5078040;28;19959;-49
2022/09/04 00:59:16;;;;;;;;;;;19.00;89.10;;;;;;5077448;28;20494;-46
2022/09/04 01:01:43;;;;;;;;;;;19.00;89.60;;;;;;5076704;28;19912;-47
2022/09/04 01:04:09;;;;;;;;;;;19.00;89.90;;;;;;5077882;28;20418;-49
2022/09/04 01:06:52;;;;;;;;;;;19.00;89.40;;;;;;5077142;28;19942;-46
2022/09/04 01:09:29;;;;;;;;;;;19.00;90.00;;;;;;5077560;28;19998;-47
2022/09/04 01:11:55;;;;;;;;;;;19.00;89.60;;;;;;5077768;28;19973;-47
2022/09/04 01:14:26;;;;;;;;;;;19.00;88.90;;;;;;5077671;28;19917;-46
2022/09/04 01:17:01;;;;;;;;;;;18.90;89.10;;;;;;5077744;28;20081;-47
2022/09/04 01:19:40;;;;;;;;;;;18.90;89.40;;;;;;5076681;28;19924;-47
2022/09/04 01:22:25;;;;;;;;;;;18.90;89.50;;;;;;5077695;28;19943;-51
2022/09/04 01:24:53;;;;;;;;;;;18.90;89.70;;;;;;5077658;28;19959;-48
2022/09/04 01:27:22;;;;;;;;;;;18.90;89.80;;;;;;5076379;28;19926;-46
2022/09/04 01:29:47;;;;;;;;;;;18.90;89.60;;;;;;5077763;28;19905;-48
2022/09/04 01:32:13;;;;;;;;;;;18.90;89.80;;;;;;5077530;28;19912;-47
2022/09/04 01:34:51;;;;;;;;;;;18.90;89.90;;;;;;5077682;28;20371;-50
2022/09/04 01:37:40;;;;;;;;;;;18.90;90.10;;;;;;5077712;28;19941;-47
2022/09/04 01:40:07;;;;;;;;;;;18.90;89.70;;;;;;5076306;28;20341;-47
2022/09/04 01:42:46;;;;;;;;;;;18.80;90.10;;;;;;5076775;28;19912;-46
2022/09/04 01:45:13;;;;;;;;;;;18.80;89.90;;;;;;5077389;28;19904;-48
2022/09/04 01:47:50;;;;;;;;;;;18.90;90.10;;;;;;5077762;28;19946;-46
2022/09/04 01:50:24;;;;;;;;;;;18.80;90.10;;;;;;5076479;28;19924;-47
2022/09/04 01:52:50;;;;;;;;;;;18.80;90.30;;;;;;5077181;28;19928;-49
2022/09/04 01:55:22;;;;;;;;;;;18.90;90.10;;;;;;5077503;28;19915;-45
2022/09/04 01:58:03;;;;;;;;;;;18.80;89.90;;;;;;5077009;28;19922;-50
2022/09/04 02:00:32;;;;;;;;;;;18.80;90.00;;;;;;5075944;28;19931;-46
2022/09/04 02:03:05;;;;;;;;;;;18.80;90.00;;;;;;5077195;28;19944;-48
2022/09/04 02:05:34;;;;;;;;;;;18.80;90.20;;;;;;5076081;28;20018;-48
2022/09/04 02:08:32;;;;;;;;;;;18.80;90.10;;;;;;5077144;28;19953;-48
2022/09/04 02:10:57;;;;;;;;;;;18.80;90.10;;;;;;5031723;28;19922;-47
2022/09/04 02:13:43;;;;;;;;;;;18.80;89.60;;;;;;5080718;28;19928;-46
2022/09/04 02:16:15;;;;;;;;;;;18.80;90.10;;;;;;5080618;28;19919;-48
2022/09/04 02:18:44;;;;;;;;;;;18.80;90.20;;;;;;5062510;28;20023;-47
2022/09/04 02:21:19;;;;;;;;;;;18.80;90.30;;;;;;5080719;28;20018;-46
2022/09/04 02:23:56;;;;;;;;;;;18.80;90.30;;;;;;5080446;28;20011;-46
2022/09/04 02:26:45;;;;;;;;;;;18.80;90.20;;;;;;5080447;28;19962;-48
2022/09/04 02:29:13;;;;;;;;;;;18.80;90.40;;;;;;5042670;28;19972;-48
2022/09/04 02:31:52;;;;;;;;;;;18.90;90.50;;;;;;5080319;28;19923;-51
2022/09/04 02:34:18;;;;;;;;;;;18.90;90.50;;;;;;5079718;28;19947;-48
2022/09/04 02:36:44;;;;;;;;;;;18.90;90.20;;;;;;5079392;28;19925;-47
2022/09/04 02:39:28;;;;;;;;;;;18.90;90.30;;;;;;5080295;28;19999;-47
2022/09/04 02:41:53;;;;;;;;;;;18.90;90.30;;;;;;5080416;28;19943;-46
2022/09/04 02:44:25;;;;;;;;;;;19.00;90.30;;;;;;5080161;28;19925;-48
2022/09/04 02:47:11;;;;;;;;;;;19.00;90.60;;;;;;5080380;28;19914;-48
2022/09/04 02:49:47;;;;;;;;;;;19.00;90.40;;;;;;5080253;28;19921;-50
2022/09/04 02:52:12;;;;;;;;;;;19.00;90.50;;;;;;5079900;28;20411;-47
2022/09/04 02:54:48;;;;;;;;;;;19.00;90.50;;;;;;5080095;28;19918;-51
2022/09/04 02:57:17;;;;;;;;;;;19.00;90.40;;;;;;5080201;28;19917;-47
2022/09/04 02:59:49;;;;;;;;;;;19.00;90.40;;;;;;5080034;28;20258;-45
2022/09/04 03:02:26;;;;;;;;;;;19.00;90.30;;;;;;5078862;28;19958;-47
2022/09/04 03:04:58;;;;;;;;;;;19.00;90.30;;;;;;5079847;28;19931;-47
2022/09/04 03:07:30;;;;;;;;;;;19.00;90.40;;;;;;5079859;28;19921;-48
2022/09/04 03:10:05;;;;;;;;;;;19.00;90.40;;;;;;5076691;28;19957;-48
2022/09/04 03:12:30;;;;;;;;;;;19.00;90.30;;;;;;5079828;28;19959;-47
2022/09/04 03:15:22;;;;;;;;;;;19.00;90.20;;;;;;5079875;28;19917;-47
2022/09/04 03:17:50;;;;;;;;;;;19.10;90.20;;;;;;5048636;28;19921;-48
2022/09/04 03:20:27;;;;;;;;;;;19.10;90.30;;;;;;5079596;28;19922;-48
2022/09/04 03:22:52;;;;;;;;;;;19.10;90.40;;;;;;5078638;28;19956;-46
2022/09/04 03:25:27;;;;;;;;;;;19.10;90.40;;;;;;5079673;28;19925;-46
2022/09/04 03:27:52;;;;;;;;;;;19.10;90.40;;;;;;5059856;28;19926;-46
2022/09/04 03:30:18;;;;;;;;;;;19.10;90.50;;;;;;5059692;28;20083;-51
2022/09/04 03:32:50;;;;;;;;;;;19.10;90.50;;;;;;5079378;28;19924;-47
2022/09/04 03:35:19;;;;;;;;;;;19.10;90.50;;;;;;5079286;28;20036;-45
2022/09/04 03:38:03;;;;;;;;;;;19.20;90.60;;;;;;5079358;28;19929;-46
2022/09/04 03:40:35;;;;;;;;;;;19.10;90.50;;;;;;5079382;28;19968;-46
2022/09/04 03:43:12;;;;;;;;;;;19.10;90.50;;;;;;5079016;28;19941;-46
2022/09/04 03:45:53;;;;;;;;;;;19.10;90.70;;;;;;5079099;28;19916;-47
2022/09/04 03:48:19;;;;;;;;;;;19.10;90.80;;;;;;5078998;28;19916;-46
2022/09/04 03:50:44;;;;;;;;;;;19.20;90.90;;;;;;5079218;28;19971;-46
2022/09/04 03:53:10;;;;;;;;;;;19.10;91.00;;;;;;5078920;28;19924;-50
2022/09/04 03:55:55;;;;;;;;;;;19.10;90.80;;;;;;5077827;28;19974;-46
2022/09/04 03:58:24;;;;;;;;;;;19.20;90.90;;;;;;5079186;28;19931;-45
2022/09/04 04:01:11;;;;;;;;;;;19.10;90.50;;;;;;5077642;28;19920;-45
2022/09/04 04:03:37;;;;;;;;;;;19.20;90.20;;;;;;5063490;28;19931;-47
2022/09/04 04:06:22;;;;;;;;;;;19.20;89.50;;;;;;5067083;28;19919;-46
2022/09/04 04:08:50;;;;;;;;;;;19.20;89.50;;;;;;5058537;28;19953;-46
2022/09/04 04:11:44;;;;;;;;;;;19.20;89.40;;;;;;5071439;28;19923;-46
2022/09/04 04:14:29;;;;;;;;;;;19.20;89.30;;;;;;5075041;28;19989;-48
2022/09/04 04:17:14;;;;;;;;;;;19.20;88.90;;;;;;5076595;28;19924;-46
2022/09/04 04:19:42;;;;;;;;;;;19.20;88.40;;;;;;5069440;28;19932;-47
2022/09/04 04:22:08;;;;;;;;;;;19.20;88.30;;;;;;5058579;28;19947;-48
2022/09/04 04:24:49;;;;;;;;;;;19.20;88.30;;;;;;5067916;28;19934;-47
2022/09/04 04:27:24;;;;;;;;;;;19.20;88.10;;;;;;5058199;28;19927;-47
2022/09/04 04:30:11;;;;;;;;;;;19.20;87.70;;;;;;5058009;28;20264;-48
2022/09/04 04:32:49;;;;;;;;;;;19.30;87.60;;;;;;5072400;28;19935;-47
2022/09/04 04:35:21;;;;;;;;;;;19.20;87.70;;;;;;5077821;28;19915;-47
2022/09/04 04:38:02;;;;;;;;;;;19.30;87.80;;;;;;5078363;28;20626;-48
2022/09/04 04:40:33;;;;;;;;;;;19.30;88.00;;;;;;5078359;28;19920;-46
2022/09/04 04:43:11;;;;;;;;;;;19.30;88.30;;;;;;5076926;28;19954;-49
2022/09/04 04:45:55;;;;;;;;;;;19.30;88.60;;;;;;5078338;28;19920;-46
2022/09/04 04:48:36;;;;;;;;;;;19.30;88.80;;;;;;5078153;28;20288;-46
2022/09/04 04:51:04;;;;;;;;;;;19.30;89.30;;;;;;5078175;28;20008;-48
2022/09/04 04:53:32;;;;;;;;;;;19.30;89.50;;;;;;5077888;28;20463;-46
2022/09/04 04:56:16;;;;;;;;;;;19.30;90.00;;;;;;5078210;28;19922;-47
2022/09/04 04:58:46;;;;;;;;;;;19.30;89.90;;;;;;5078099;28;19923;-49
2022/09/04 05:01:16;;;;;;;;;;;19.30;90.40;;;;;;5077595;28;19932;-47
2022/09/04 05:03:50;;;;;;;;;;;19.40;90.50;;;;;;5077592;28;20446;-51
2022/09/04 05:06:25;;;;;;;;;;;19.40;90.50;;;;;;5076680;28;19926;-47
2022/09/04 05:09:24;;;;;;;;;;;19.30;90.50;;;;;;5077352;28;20414;-51
2022/09/04 05:11:50;;;;;;;;;;;19.30;90.80;;;;;;4993157;28;19929;-48
2022/09/04 05:14:21;;;;;;;;;;;19.30;90.80;;;;;;5074085;28;19942;-46
2022/09/04 05:16:53;;;;;;;;;;;19.30;90.90;;;;;;5077842;28;19930;-46
2022/09/04 05:19:37;;;;;;;;;;;19.30;90.90;;;;;;5076632;28;20014;-47
2022/09/04 05:22:21;;;;;;;;;;;19.30;90.80;;;;;;5077600;28;19992;-48
2022/09/04 05:25:16;;;;;;;;;;;19.30;90.90;;;;;;5075728;28;19992;-46
2022/09/04 05:27:47;;;;;;;;;;;19.30;90.80;;;;;;5013432;28;20021;-48
2022/09/04 05:30:22;;;;;;;;;;;19.30;90.80;;;;;;5064344;28;20274;-48
2022/09/04 05:32:51;;;;;;;;;;;19.30;90.80;;;;;;5075672;28;19923;-52
2022/09/04 05:35:35;;;;;;;;;;;19.30;90.70;;;;;;5076670;28;19930;-47
2022/09/04 05:38:07;;;;;;;;;;;19.30;90.70;;;;;;5073792;28;20017;-47
2022/09/04 05:40:45;;;;;;;;;;;19.30;90.60;;;;;;5056576;28;20409;-47
2022/09/04 05:43:20;;;;;;;;;;;19.30;90.60;;;;;;5056080;28;19942;-51
2022/09/04 05:45:51;;;;;;;;;;;19.30;90.60;;;;;;5056413;28;19964;-51
2022/09/04 05:48:29;;;;;;;;;;;19.30;90.30;;;;;;5060260;28;19931;-50
2022/09/04 05:51:06;;;;;;;;;;;19.30;90.40;;;;;;5060258;28;19920;-51
2022/09/04 05:53:41;;;;;;;;;;;19.30;90.40;;;;;;5063122;28;19922;-50
2022/09/04 05:56:13;;;;;;;;;;;19.30;90.40;;;;;;5078540;28;20424;-49
2022/09/04 05:58:39;;;;;;;;;;;19.30;90.30;;;;;;5075696;28;19919;-47
2022/09/04 06:01:13;;;;;;;;;;;19.30;90.20;;;;;;5077483;28;19923;-48
2022/09/04 06:03:54;;;;;;;;;;;19.30;90.30;;;;;;5077146;28;19926;-48
2022/09/04 06:06:35;;;;;;;;;;;19.30;90.20;;;;;;5075440;28;19923;-49
2022/09/04 06:09:21;;;;;;;;;;;19.30;90.30;;;;;;5078751;28;19982;-47
2022/09/04 06:12:05;;;;;;;;;;;19.30;90.40;;;;;;5067851;28;20490;-50
2022/09/04 06:14:39;;;;;;;;;;;19.30;90.50;;;;;;5066938;28;20040;-52
2022/09/04 06:17:25;;;;;;;;;;;19.30;90.40;;;;;;5073040;28;19924;-46
2022/09/04 06:20:01;;;;;;;;;;;19.30;90.50;;;;;;5048580;28;19926;-53
2022/09/04 06:22:36;;;;;;;;;;;19.30;90.40;;;;;;5070053;28;19945;-49
2022/09/04 06:25:20;;;;;;;;;;;19.30;90.60;;;;;;5074998;28;20346;-53
2022/09/04 06:27:55;;;;;;;;;;;19.40;90.60;;;;;;5065559;28;19932;-48
2022/09/04 06:30:20;;;;;;;;;;;19.40;90.70;;;;;;5076756;28;19928;-49
2022/09/04 06:33:05;;;;;;;;;;;19.40;90.80;;;;;;5077010;28;19924;-46
2022/09/04 06:35:45;;;;;;;;;;;19.40;90.50;;;;;;5079219;28;19925;-51
2022/09/04 06:38:23;;;;;;;;;;;19.40;90.50;;;;;;5077238;28;20625;-53
2022/09/04 06:40:58;;;;;;;;;;;19.40;90.50;;;;;;5077560;28;19960;-52
2022/09/04 06:43:33;;;;;;;;;;;19.40;90.40;;;;;;5077374;28;19946;-50
2022/09/04 06:45:58;;;;;;;;;;;19.40;90.20;;;;;;5076768;28;20319;-48
2022/09/04 06:48:27;;;;;;;;;;;19.40;90.10;;;;;;5076692;28;20431;-52
2022/09/04 06:51:06;;;;;;;;;;;19.40;90.10;;;;;;5076119;28;19924;-50
2022/09/04 06:53:50;;;;;;;;;;;19.40;90.10;;;;;;5077245;28;20002;-52
2022/09/04 06:56:30;;;;;;;;;;;19.50;90.00;;;;;;5069620;28;20322;-51
2022/09/04 06:59:02;;;;;;;;;;;19.50;89.80;;;;;;5077000;28;19958;-50
2022/09/04 07:01:28;;;;;;;;;;;19.50;89.80;;;;;;5059074;28;19974;-48
2022/09/04 07:04:10;;;;;;;;;;;19.50;89.60;;;;;;5073604;28;20373;-49
2022/09/04 07:06:42;;;;;;;;;;;19.50;89.00;;;;;;5075875;28;20014;-48
2022/09/04 07:09:08;;;;;;;;;;;19.50;88.70;;;;;;5078475;28;19957;-48
2022/09/04 07:11:56;;;;;;;;;;;19.50;88.60;;;;;;5078753;28;19971;-46
2022/09/04 07:14:41;;;;;;;;;;;19.50;88.30;;;;;;5062623;28;19919;-49
2022/09/04 07:17:25;;;;;;;;;;;19.50;88.20;;;;;;5077896;28;20489;-51
2022/09/04 07:19:53;;;;;;;;;;;19.50;88.40;;;;;;5077420;28;20447;-48
2022/09/04 07:22:30;;;;;;;;;;;19.50;88.40;;;;;;5077594;28;19946;-48
2022/09/04 07:25:01;;;;;;;;;;;19.50;88.30;;;;;;5076211;28;20005;-47
2022/09/04 07:27:41;;;;;;;;;;;19.50;88.30;;;;;;5074930;28;19928;-46
2022/09/04 07:30:08;;;;;;;;;;;19.50;88.10;;;;;;5066906;28;19925;-53
2022/09/04 07:32:52;;;;;;;;;;;19.60;88.20;;;;;;5073748;28;19933;-51
2022/09/04 07:35:26;;;;;;;;;;;19.60;88.00;;;;;;5071622;28;19929;-48
2022/09/04 07:37:59;;;;;;;;;;;19.60;88.40;;;;;;5073208;28;19956;-48
2022/09/04 07:40:29;;;;;;;;;;;19.60;88.20;;;;;;5069887;28;19932;-48
2022/09/04 07:43:10;;;;;;;;;;;19.60;88.40;;;;;;5076959;28;19982;-46
2022/09/04 07:45:35;;;;;;;;;;;19.60;88.20;;;;;;5075741;28;19929;-50
2022/09/04 07:48:10;;;;;;;;;;;19.70;88.40;;;;;;5074773;28;20027;-49
2022/09/04 07:50:38;;;;;;;;;;;19.70;88.50;;;;;;5067323;28;20408;-51
2022/09/04 07:53:19;;;;;;;;;;;19.70;88.70;;;;;;5055555;28;19927;-48
2022/09/04 07:55:47;;;;;;;;;;;19.70;88.70;;;;;;5056644;28;19936;-47
2022/09/04 07:58:12;;;;;;;;;;;19.70;88.80;;;;;;5056292;28;19927;-48
2022/09/04 08:00:47;;;;;;;;;;;19.70;88.60;;;;;;5056860;28;19924;-47
2022/09/04 08:03:20;;;;;;;;;;;19.70;88.60;;;;;;5057351;28;20454;-49
2022/09/04 08:06:08;;;;;;;;;;;19.70;88.80;;;;;;5058314;28;20007;-46
2022/09/04 08:08:48;;;;;;;;;;;19.70;88.90;;;;;;5057980;28;20006;-49
2022/09/04 08:11:17;;;;;;;;;;;19.80;89.00;;;;;;5058025;28;20393;-50
2022/09/04 08:13:46;;;;;;;;;;;19.80;89.20;;;;;;5058373;28;19952;-49
2022/09/04 08:16:20;;;;;;;;;;;19.80;89.10;;;;;;5058596;28;20006;-52
2022/09/04 08:19:05;;;;;;;;;;;19.80;89.00;;;;;;5058561;28;19920;-46
2022/09/04 08:21:41;;;;;;;;;;;19.80;89.00;;;;;;5058294;28;19926;-46
2022/09/04 08:24:10;;;;;;;;;;;19.80;88.70;;;;;;5058186;28;20392;-48
2022/09/04 08:26:45;;;;;;;;;;;19.80;88.60;;;;;;5058613;28;19981;-48
2022/09/04 08:29:20;;;;;;;;;;;19.80;88.60;;;;;;5058343;28;19932;-48
2022/09/04 08:31:45;;;;;;;;;;;19.80;88.40;;;;;;5058193;28;19916;-52
2022/09/04 08:34:30;;;;;;;;;;;19.90;88.30;;;;;;5058268;28;20061;-51
2022/09/04 08:37:04;;;;;;;;;;;19.90;88.30;;;;;;5058419;28;19980;-56
2022/09/04 08:39:36;;;;;;;;;;;19.90;88.30;;;;;;5058143;28;19968;-56
2022/09/04 08:42:14;;;;;;;;;;;19.90;88.40;;;;;;5058659;28;19952;-52
2022/09/04 08:44:51;;;;;;;;;;;19.90;88.20;;;;;;5058136;28;19928;-52
2022/09/04 08:47:23;;;;;;;;;;;19.80;88.10;;;;;;5057593;28;20405;-56
2022/09/04 08:49:55;;;;;;;;;;;19.80;88.40;;;;;;5057634;28;19916;-53
2022/09/04 08:52:30;;;;;;;;;;;19.80;88.20;;;;;;5057862;28;19917;-55
2022/09/04 08:54:56;;;;;;;;;;;19.80;88.00;;;;;;5058221;28;19926;-57
2022/09/04 08:57:38;;;;;;;;;;;19.90;87.60;;;;;;5057626;28;19925;-56
2022/09/04 09:00:08;;;;;;;;;;;19.90;87.60;;;;;;5057785;28;19938;-55
2022/09/04 09:02:43;;;;;;;;;;;19.90;87.50;;;;;;5057750;28;19954;-52
2022/09/04 09:05:21;;;;;;;;;;;19.90;87.60;;;;;;5057616;28;19975;-53
2022/09/04 09:08:05;;;;;;;;;;;19.90;87.30;;;;;;5057593;28;19924;-54
2022/09/04 09:10:36;;;;;;;;;;;19.90;87.60;;;;;;5057602;28;19923;-52
2022/09/04 09:13:30;;;;;;;;;;;19.90;87.50;;;;;;5057798;28;19960;-52
2022/09/04 09:16:14;;;;;;;;;;;19.90;87.50;;;;;;5058020;28;19920;-53
2022/09/04 09:18:51;;;;;;;;;;;19.90;87.60;;;;;;5057915;28;19969;-53
2022/09/04 09:21:23;;;;;;;;;;;19.90;87.30;;;;;;5059768;28;19930;-51
2022/09/04 09:23:58;;;;;;;;;;;20.00;87.00;;;;;;5061879;28;19984;-51
2022/09/04 09:26:29;;;;;;;;;;;20.00;87.30;;;;;;5061584;28;20013;-52
2022/09/04 09:29:15;;;;;;;;;;;20.10;87.40;;;;;;5061615;28;20309;-54
2022/09/04 09:31:46;;;;;;;;;;;20.10;87.70;;;;;;5061834;28;19924;-51
2022/09/04 09:34:21;;;;;;;;;;;20.20;87.20;;;;;;5061443;28;20033;-54
2022/09/04 09:36:50;;;;;;;;;;;20.40;87.40;;;;;;5061354;28;19923;-53
2022/09/04 09:39:34;;;;;;;;;;;20.60;87.60;;;;;;5061437;28;19976;-52
2022/09/04 09:42:18;;;;;;;;;;;20.80;85.80;;;;;;5061585;28;19950;-57
2022/09/04 09:45:05;;;;;;;;;;;20.80;85.30;;;;;;5061359;28;19950;-53
2022/09/04 09:47:49;;;;;;;;;;;20.90;83.90;;;;;;5061337;28;19941;-54
2022/09/04 09:50:33;;;;;;;;;;;21.00;85.70;;;;;;5061065;28;19918;-55
2022/09/04 09:52:58;;;;;;;;;;;21.10;85.10;;;;;;5061325;28;19915;-54
2022/09/04 09:55:43;;;;;;;;;;;21.30;85.70;;;;;;5061174;28;19979;-50
2022/09/04 09:58:27;;;;;;;;;;;21.30;83.80;;;;;;5061392;28;19917;-50
2022/09/04 10:00:53;;;;;;;;;;;21.10;83.60;;;;;;5060642;28;19930;-51
2022/09/04 10:03:37;;;;;;;;;;;21.10;83.60;;;;;;5060643;28;20354;-54
2022/09/04 10:06:22;;;;;;;;;;;21.20;84.50;;;;;;5060812;28;19923;-51
2022/09/04 10:08:50;;;;;;;;;;;21.30;85.00;;;;;;5060766;28;19996;-54
2022/09/04 10:11:35;;;;;;;;;;;21.40;83.00;;;;;;5060915;28;19919;-53
2022/09/04 10:14:10;;;;;;;;;;;21.40;84.10;;;;;;5060797;28;20348;-52
2022/09/04 10:16:47;;;;;;;;;;;21.60;84.10;;;;;;5061072;28;19915;-49
2022/09/04 10:19:22;;;;;;;;;;;21.80;83.10;;;;;;5060931;28;19926;-52
2022/09/04 10:22:07;;;;;;;;;;;22.10;82.90;;;;;;5060908;28;19912;-52
2022/09/04 10:24:52;;;;;;;;;;;22.30;80.40;;;;;;5060881;28;19911;-50
2022/09/04 10:27:28;;;;;;;;;;;22.50;81.40;;;;;;5060392;28;20340;-54
2022/09/04 10:30:05;;;;;;;;;;;23.20;84.20;;;;;;5060258;28;19911;-53
2022/09/04 10:32:31;;;;;;;;;;;23.60;75.40;;;;;;5059223;28;19958;-50
2022/09/04 10:35:16;;;;;;;;;;;23.70;74.40;;;;;;5060381;28;19904;-55
2022/09/04 10:38:02;;;;;;;;;;;23.80;75.80;;;;;;5060798;28;19904;-56
2022/09/04 10:40:42;;;;;;;;;;;23.60;74.10;;;;;;5019359;28;19905;-52
2022/09/04 10:43:26;;;;;;;;;;;23.60;74.00;;;;;;5058530;28;19912;-55
2022/09/04 10:46:02;;;;;;;;;;;23.60;73.50;;;;;;5060432;28;19905;-50
2022/09/04 10:48:47;;;;;;;;;;;23.40;75.30;;;;;;5060657;28;19905;-51
2022/09/04 10:51:32;;;;;;;;;;;23.30;75.00;;;;;;5060333;28;19905;-51
2022/09/04 10:54:04;;;;;;;;;;;23.40;75.30;;;;;;5060534;28;19912;-49
2022/09/04 10:56:30;;;;;;;;;;;23.20;73.60;;;;;;5060545;28;19916;-51
2022/09/04 10:59:26;;;;;;;;;;;23.10;74.40;;;;;;5060460;28;19905;-50
2022/09/04 11:02:00;;;;;;;;;;;23.30;74.80;;;;;;4989339;28;19964;-51
2022/09/04 11:04:26;;;;;;;;;;;23.80;74.40;;;;;;5060353;28;19995;-55
2022/09/04 11:07:09;;;;;;;;;;;24.20;73.30;;;;;;5060300;28;20402;-50
2022/09/04 11:09:48;;;;;;;;;;;24.40;72.60;;;;;;5059820;28;20038;-52
2022/09/04 11:12:23;;;;;;;;;;;24.60;70.60;;;;;;5060369;28;19905;-52
2022/09/04 11:15:12;;;;;;;;;;;24.20;73.80;;;;;;5059955;28;19904;-52
2022/09/04 11:17:49;;;;;;;;;;;24.40;72.20;;;;;;5058881;28;19923;-49
2022/09/04 11:20:26;;;;;;;;;;;24.40;70.70;;;;;;5059803;28;20411;-52
2022/09/04 11:23:11;;;;;;;;;;;24.20;71.20;;;;;;5059734;28;19913;-53
2022/09/04 11:25:46;;;;;;;;;;;24.40;71.20;;;;;;5059750;28;20323;-52
2022/09/04 11:28:18;;;;;;;;;;;24.20;71.40;;;;;;5059891;28;19904;-51
2022/09/04 11:30:47;;;;;;;;;;;24.10;71.30;;;;;;5059655;28;19904;-50
2022/09/04 11:33:28;;;;;;;;;;;23.60;72.00;;;;;;5059438;28;19944;-52
2022/09/04 11:35:53;;;;;;;;;;;23.60;72.60;;;;;;5059564;28;19905;-50
2022/09/04 11:38:43;;;;;;;;;;;23.40;73.10;;;;;;5059848;28;19911;-50
2022/09/04 11:41:32;;;;;;;;;;;23.30;73.00;;;;;;5059836;28;19911;-51
2022/09/04 11:44:01;;;;;;;;;;;23.30;74.70;;;;;;5048406;28;19915;-49
2022/09/04 11:46:30;;;;;;;;;;;23.60;72.50;;;;;;5059609;28;19905;-53
2022/09/04 11:49:14;;;;;;;;;;;23.70;73.50;;;;;;5059231;28;19905;-53
2022/09/04 11:52:03;;;;;;;;;;;23.90;73.80;;;;;;5059522;28;20368;-52
2022/09/04 11:54:44;;;;;;;;;;;23.80;72.80;;;;;;5048316;28;19911;-52
2022/09/04 11:57:19;;;;;;;;;;;23.40;73.10;;;;;;5058921;28;19909;-56
2022/09/04 11:59:51;;;;;;;;;;;23.10;74.60;;;;;;5058778;28;19904;-53
2022/09/04 12:02:25;;;;;;;;;;;23.00;75.10;;;;;;5058620;28;20448;-56
2022/09/04 12:04:51;;;;;;;;;;;23.00;74.70;;;;;;5058721;28;20022;-56
2022/09/04 12:07:42;;;;;;;;;;;22.90;75.00;;;;;;5058827;28;19947;-51
2022/09/04 12:10:16;;;;;;;;;;;22.70;75.60;;;;;;5058986;28;20007;-54
2022/09/04 12:13:01;;;;;;;;;;;22.60;76.00;;;;;;5058500;28;19926;-53
2022/09/04 12:15:35;;;;;;;;;;;22.50;76.20;;;;;;5058493;28;20276;-52
2022/09/04 12:18:04;;;;;;;;;;;22.50;76.80;;;;;;5058621;28;19905;-55
2022/09/04 12:20:37;;;;;;;;;;;22.60;76.50;;;;;;5058573;28;19905;-53
2022/09/04 12:23:22;;;;;;;;;;;22.60;77.00;;;;;;5058255;28;19936;-56
2022/09/04 12:26:04;;;;;;;;;;;22.90;76.30;;;;;;5058299;28;19953;-52
2022/09/04 12:28:52;;;;;;;;;;;23.30;75.80;;;;;;5058732;28;19905;-51
2022/09/04 12:31:27;;;;;;;;;;;23.50;74.70;;;;;;5020890;28;19988;-52
2022/09/04 12:33:52;;;;;;;;;;;23.60;74.20;;;;;;5058361;28;20633;-54
2022/09/04 12:36:37;;;;;;;;;;;24.00;73.60;;;;;;5058069;28;19951;-55
2022/09/04 12:39:08;;;;;;;;;;;23.90;72.60;;;;;;5058262;28;19905;-50
2022/09/04 12:41:50;;;;;;;;;;;23.90;72.10;;;;;;5058174;28;19913;-54
2022/09/04 12:44:34;;;;;;;;;;;23.60;72.20;;;;;;5058299;28;19912;-52
2022/09/04 12:47:07;;;;;;;;;;;23.50;73.50;;;;;;5058119;28;19905;-56
2022/09/04 12:49:41;;;;;;;;;;;23.30;73.40;;;;;;5058133;28;19905;-53
2022/09/04 12:52:09;;;;;;;;;;;23.50;73.10;;;;;;5057892;28;19912;-54
2022/09/04 12:54:36;;;;;;;;;;;23.70;72.30;;;;;;5057860;28;19904;-56
2022/09/04 12:57:07;;;;;;;;;;;23.90;71.30;;;;;;5057239;28;20241;-52
2022/09/04 12:59:32;;;;;;;;;;;24.00;72.10;;;;;;5057707;28;20324;-57
2022/09/04 13:02:09;;;;;;;;;;;24.00;71.40;;;;;;5057849;28;19916;-51
2022/09/04 13:04:43;;;;;;;;;;;24.30;71.20;;;;;;5057698;28;19904;-55
2022/09/04 13:07:15;;;;;;;;;;;24.90;71.00;;;;;;5057864;28;20400;-57
2022/09/04 13:09:44;;;;;;;;;;;25.10;68.30;;;;;;5057453;28;19962;-57
2022/09/04 13:12:10;;;;;;;;;;;25.30;69.30;;;;;;5058118;28;19905;-56
2022/09/04 13:14:42;;;;;;;;;;;25.50;66.90;;;;;;5057694;28;20304;-52
2022/09/04 13:17:08;;;;;;;;;;;25.70;66.20;;;;;;5057981;28;20287;-55
2022/09/04 13:19:45;;;;;;;;;;;25.90;68.90;;;;;;5057525;28;20360;-54
2022/09/04 13:22:13;;;;;;;;;;;26.10;65.80;;;;;;5057482;28;20311;-55
2022/09/04 13:24:53;;;;;;;;;;;26.10;66.20;;;;;;5057857;28;20360;-56
2022/09/04 13:27:35;;;;;;;;;;;26.10;65.00;;;;;;5057934;28;19911;-55
2022/09/04 13:30:00;;;;;;;;;;;26.10;66.50;;;;;;5057694;28;19904;-53
2022/09/04 13:32:58;;;;;;;;;;;26.00;64.40;;;;;;5057708;28;20299;-56
2022/09/04 13:35:30;;;;;;;;;;;26.10;66.30;;;;;;5013051;28;19905;-57
2022/09/04 13:38:05;;;;;;;;;;;26.20;64.90;;;;;;5057661;28;19951;-51
2022/09/04 13:40:53;;;;;;;;;;;26.30;64.30;;;;;;5057419;28;19958;-52
2022/09/04 13:43:25;;;;;;;;;;;25.90;63.60;;;;;;5057340;28;19916;-56
2022/09/04 13:45:54;;;;;;;;;;;25.50;65.60;;;;;;5057524;28;19909;-57
2022/09/04 13:48:32;;;;;;;;;;;25.00;64.80;;;;;;5055883;28;19905;-54
2022/09/04 13:51:00;;;;;;;;;;;25.00;66.00;;;;;;5057249;28;20278;-57
2022/09/04 13:53:34;;;;;;;;;;;24.80;66.90;;;;;;5057430;28;19911;-56
2022/09/04 13:56:05;;;;;;;;;;;24.70;68.30;;;;;;5057651;28;20283;-57
2022/09/04 13:58:32;;;;;;;;;;;24.70;67.20;;;;;;5057133;28;20383;-53
2022/09/04 14:01:00;;;;;;;;;;;24.70;67.70;;;;;;5057467;28;19905;-55
2022/09/04 14:03:29;;;;;;;;;;;24.70;68.20;;;;;;5055801;28;19909;-55
2022/09/04 14:05:55;;;;;;;;;;;24.80;68.10;;;;;;5057224;28;19905;-54
2022/09/04 14:08:22;;;;;;;;;;;24.70;67.40;;;;;;5058912;28;20007;-56
2022/09/04 14:11:06;;;;;;;;;;;24.60;68.40;;;;;;5060768;28;19905;-53
2022/09/04 14:13:41;;;;;;;;;;;24.30;67.50;;;;;;5060785;28;20392;-50
2022/09/04 14:16:10;;;;;;;;;;;24.30;67.80;;;;;;5060694;28;19912;-56
2022/09/04 14:18:58;;;;;;;;;;;24.20;68.00;;;;;;5060766;28;19909;-55
2022/09/04 14:21:35;;;;;;;;;;;24.40;68.00;;;;;;5061418;28;19909;-55
2022/09/04 14:24:07;;;;;;;;;;;24.60;67.20;;;;;;5060781;28;19931;-54
2022/09/04 14:26:59;;;;;;;;;;;24.60;67.50;;;;;;5060539;28;19919;-55
2022/09/04 14:29:28;;;;;;;;;;;24.60;66.10;;;;;;5060734;28;19936;-52
2022/09/04 14:32:18;;;;;;;;;;;24.30;67.10;;;;;;5060107;28;20427;-52
2022/09/04 14:35:07;;;;;;;;;;;24.20;68.20;;;;;;5060406;28;20275;-55
2022/09/04 14:37:47;;;;;;;;;;;24.40;68.10;;;;;;5060384;28;19909;-53
2022/09/04 14:40:14;;;;;;;;;;;24.30;67.20;;;;;;5060275;28;19950;-53
2022/09/04 14:42:46;;;;;;;;;;;24.40;66.60;;;;;;5060144;28;19992;-51
2022/09/04 14:45:12;;;;;;;;;;;24.50;67.50;;;;;;5060234;28;19911;-50
2022/09/04 14:47:37;;;;;;;;;;;24.70;67.20;;;;;;5060165;28;19999;-54
2022/09/04 14:50:06;;;;;;;;;;;24.70;66.10;;;;;;5060343;28;20391;-50
2022/09/04 14:52:37;;;;;;;;;;;24.60;66.60;;;;;;5060157;28;19904;-51
2022/09/04 14:55:03;;;;;;;;;;;24.70;66.80;;;;;;5060211;28;19904;-54
2022/09/04 14:57:36;;;;;;;;;;;24.70;66.20;;;;;;5060014;28;20277;-50
2022/09/04 15:00:02;;;;;;;;;;;24.50;66.40;;;;;;5059903;28;20252;-54
2022/09/04 15:02:32;;;;;;;;;;;24.30;67.20;;;;;;5059981;28;20354;-55
2022/09/04 15:05:09;;;;;;;;;;;24.30;67.30;;;;;;5060041;28;19915;-50